createdAt,value
2023-04-18T00:01:52.619Z,100.00
2023-04-18T00:04:19.988Z,100.00
2023-04-18T00:06:49.854Z,100.00
2023-04-18T00:09:16.764Z,100.00
2023-04-18T00:11:44.140Z,100.00
2023-04-18T00:14:11.974Z,100.00
2023-04-18T00:16:39.478Z,100.00
2023-04-18T00:19:06.611Z,100.00
2023-04-18T00:21:33.491Z,100.00
2023-04-18T00:24:00.624Z,100.00
2023-04-18T00:26:28.236Z,100.00
2023-04-18T00:28:56.897Z,100.00
2023-04-18T00:31:24.047Z,100.00
2023-04-18T00:33:51.347Z,100.00
2023-04-18T00:36:18.261Z,100.00
2023-04-18T00:38:45.353Z,100.00
2023-04-18T00:41:15.483Z,100.00
2023-04-18T00:43:42.285Z,100.00
2023-04-18T00:46:11.031Z,100.00
2023-04-18T00:48:39.231Z,100.00
2023-04-18T00:51:07.798Z,100.00
2023-04-18T00:53:36.173Z,100.00
2023-04-18T00:56:03.516Z,100.00
2023-04-18T00:58:32.172Z,100.00
2023-04-18T01:00:59.180Z,100.00
2023-04-18T01:03:26.521Z,100.00
2023-04-18T01:05:54.848Z,100.00
2023-04-18T01:08:22.344Z,100.00
2023-04-18T01:10:49.754Z,100.00
2023-04-18T01:13:18.760Z,100.00
2023-04-18T01:15:50.514Z,100.00
2023-04-18T01:18:18.142Z,100.00
2023-04-18T01:20:48.842Z,100.00
2023-04-18T01:23:17.430Z,100.00
2023-04-18T01:25:45.764Z,100.00
2023-04-18T01:28:14.565Z,100.00
2023-04-18T01:30:41.778Z,100.00
2023-04-18T01:33:08.693Z,100.00
2023-04-18T01:35:35.791Z,100.00
2023-04-18T01:38:03.049Z,100.00
2023-04-18T01:40:30.340Z,100.00
2023-04-18T01:42:57.240Z,100.00
2023-04-18T01:45:24.493Z,100.00
2023-04-18T01:47:51.652Z,100.00
2023-04-18T01:50:18.573Z,100.00
2023-04-18T01:52:45.619Z,100.00
2023-04-18T01:55:12.750Z,100.00
2023-04-18T01:57:40.088Z,100.00
2023-04-18T02:00:08.189Z,100.00
2023-04-18T02:02:44.251Z,100.00
2023-04-18T02:05:11.414Z,100.00
2023-04-18T02:07:39.776Z,100.00
2023-04-18T02:10:07.910Z,100.00
2023-04-18T02:12:34.985Z,100.00
2023-04-18T02:15:02.079Z,100.00
2023-04-18T02:17:29.334Z,100.00
2023-04-18T02:19:56.513Z,100.00
2023-04-18T02:22:23.292Z,100.00
2023-04-18T02:24:50.430Z,100.00
2023-04-18T02:27:18.455Z,100.00
2023-04-18T02:29:45.981Z,100.00
2023-04-18T02:32:12.922Z,100.00
2023-04-18T02:34:43.181Z,100.00
2023-04-18T02:37:10.110Z,100.00
2023-04-18T02:39:39.580Z,100.00
2023-04-18T02:42:06.418Z,100.00
2023-04-18T02:44:33.505Z,100.00
2023-04-18T02:47:01.726Z,100.00
2023-04-18T02:49:29.786Z,100.00
2023-04-18T02:51:57.332Z,100.00
2023-04-18T02:54:24.909Z,100.00
2023-04-18T02:56:57.515Z,100.00
2023-04-18T02:59:50.444Z,100.00
2023-04-18T03:02:21.197Z,100.00
2023-04-18T03:04:53.985Z,100.00
2023-04-18T03:07:20.822Z,100.00
2023-04-18T03:09:49.900Z,100.00
2023-04-18T03:12:21.908Z,100.00
2023-04-18T03:14:48.891Z,100.00
2023-04-18T03:17:16.204Z,100.00
2023-04-18T03:19:47.740Z,100.00
2023-04-18T03:22:16.379Z,100.00
2023-04-18T03:24:52.808Z,100.00
2023-04-18T03:27:20.806Z,100.00
2023-04-18T03:29:48.256Z,100.00
2023-04-18T03:32:15.606Z,100.00
2023-04-18T03:34:42.697Z,100.00
2023-04-18T03:37:10.339Z,100.00
2023-04-18T03:39:43.373Z,100.00
2023-04-18T03:42:10.605Z,100.00
2023-04-18T03:44:38.246Z,100.00
2023-04-18T03:47:05.496Z,100.00
2023-04-18T03:49:35.110Z,100.00
2023-04-18T03:52:03.404Z,100.00
2023-04-18T03:54:30.657Z,100.00
2023-04-18T03:56:59.589Z,100.00
2023-04-18T03:59:27.211Z,100.00
2023-04-18T04:01:55.974Z,100.00
2023-04-18T04:04:23.243Z,100.00
2023-04-18T04:06:51.207Z,100.00
2023-04-18T04:09:18.190Z,100.00
2023-04-18T04:11:46.406Z,100.00
2023-04-18T04:14:15.196Z,100.00
2023-04-18T04:16:45.539Z,100.00
2023-04-18T04:19:15.541Z,100.00
2023-04-18T04:22:01.231Z,100.00
2023-04-18T04:24:29.185Z,100.00
2023-04-18T04:26:57.290Z,100.00
2023-04-18T04:29:26.438Z,100.00
2023-04-18T04:31:53.487Z,100.00
2023-04-18T04:34:34.434Z,100.00
2023-04-18T04:37:04.075Z,100.00
2023-04-18T04:39:35.427Z,100.00
2023-04-18T04:42:20.945Z,100.00
2023-04-18T04:44:55.519Z,100.00
2023-04-18T04:47:22.968Z,100.00
2023-04-18T04:49:50.003Z,100.00
2023-04-18T04:52:16.975Z,100.00
2023-04-18T04:54:45.912Z,100.00
2023-04-18T04:57:15.763Z,100.00
2023-04-18T04:59:42.829Z,100.00
2023-04-18T05:02:11.195Z,100.00
2023-04-18T05:04:38.089Z,100.00
2023-04-18T05:07:06.160Z,100.00
2023-04-18T05:09:33.100Z,100.00
2023-04-18T05:12:00.065Z,100.00
2023-04-18T05:14:27.755Z,100.00
2023-04-18T05:16:55.907Z,100.00
2023-04-18T05:19:23.683Z,100.00
2023-04-18T05:21:51.054Z,100.00
2023-04-18T05:24:18.206Z,100.00
2023-04-18T05:26:45.206Z,100.00
2023-04-18T05:29:12.308Z,100.00
2023-04-18T05:31:39.077Z,100.00
2023-04-18T05:34:06.003Z,100.00
2023-04-18T05:36:32.848Z,100.00
2023-04-18T05:38:59.817Z,100.00
2023-04-18T05:41:26.826Z,100.00
2023-04-18T05:44:04.367Z,100.00
2023-04-18T05:46:32.966Z,100.00
2023-04-18T05:49:00.145Z,100.00
2023-04-18T05:51:28.717Z,100.00
2023-04-18T05:53:55.816Z,100.00
2023-04-18T05:56:22.824Z,100.00
2023-04-18T05:58:51.352Z,100.00
2023-04-18T06:01:21.457Z,100.00
2023-04-18T06:03:48.697Z,100.00
2023-04-18T06:06:16.208Z,100.00
2023-04-18T06:08:43.260Z,100.00
2023-04-18T06:11:10.136Z,100.00
2023-04-18T06:13:37.739Z,100.00
2023-04-18T06:16:05.963Z,100.00
2023-04-18T06:18:33.635Z,100.00
2023-04-18T06:21:00.558Z,100.00
2023-04-18T06:23:27.614Z,100.00
2023-04-18T06:25:54.780Z,100.00
2023-04-18T06:28:21.748Z,100.00
2023-04-18T06:30:48.626Z,100.00
2023-04-18T06:33:15.574Z,100.00
2023-04-18T06:35:42.573Z,100.00
2023-04-18T06:38:11.423Z,100.00
2023-04-18T06:40:38.313Z,100.00
2023-04-18T06:43:05.194Z,100.00
2023-04-18T06:45:32.494Z,100.00
2023-04-18T06:48:00.086Z,100.00
2023-04-18T06:50:27.247Z,100.00
2023-04-18T06:52:54.278Z,100.00
2023-04-18T06:55:21.570Z,100.00
2023-04-18T06:57:48.675Z,100.00
2023-04-18T07:00:16.118Z,100.00
2023-04-18T07:02:43.166Z,100.00
2023-04-18T07:05:11.140Z,100.00
2023-04-18T07:07:38.216Z,100.00
2023-04-18T07:10:06.963Z,100.00
2023-04-18T07:12:33.976Z,100.00
2023-04-18T07:15:01.055Z,100.00
2023-04-18T07:17:28.035Z,100.00
2023-04-18T07:19:55.160Z,100.00
2023-04-18T07:22:31.165Z,100.00
2023-04-18T07:24:58.260Z,100.00
2023-04-18T07:27:25.971Z,100.00
2023-04-18T07:29:53.117Z,100.00
2023-04-18T07:32:19.983Z,100.00
2023-04-18T07:34:47.077Z,100.00
2023-04-18T07:37:15.245Z,100.00
2023-04-18T07:39:42.261Z,100.00
2023-04-18T07:42:10.036Z,100.00
2023-04-18T07:44:36.982Z,100.00
2023-04-18T07:47:03.953Z,100.00
2023-04-18T07:49:31.002Z,100.00
2023-04-18T07:51:57.888Z,100.00
2023-04-18T07:54:24.725Z,100.00
2023-04-18T07:56:51.664Z,100.00
2023-04-18T07:59:18.645Z,100.00
2023-04-18T08:01:45.985Z,100.00
2023-04-18T08:04:13.408Z,100.00
2023-04-18T08:06:40.945Z,100.00
2023-04-18T08:09:09.266Z,100.00
2023-04-18T08:11:36.171Z,100.00
2023-04-18T08:14:03.072Z,100.00
2023-04-18T08:16:30.044Z,100.00
2023-04-18T08:18:57.104Z,100.00
2023-04-18T08:21:24.015Z,100.00
2023-04-18T08:23:51.034Z,100.00
2023-04-18T08:26:18.262Z,100.00
2023-04-18T08:28:46.552Z,100.00
2023-04-18T08:31:15.035Z,100.00
2023-04-18T08:33:42.832Z,100.00
2023-04-18T08:36:09.969Z,100.00
2023-04-18T08:38:36.947Z,100.00
2023-04-18T08:41:04.190Z,100.00
2023-04-18T08:43:31.357Z,100.00
2023-04-18T08:46:00.344Z,100.00
2023-04-18T08:48:28.425Z,100.00
2023-04-18T08:50:59.853Z,100.00
2023-04-18T08:53:27.357Z,100.00
2023-04-18T08:55:56.397Z,100.00
2023-04-18T08:58:24.471Z,99.99
2023-04-18T09:00:53.036Z,100.00
2023-04-18T09:03:41.152Z,100.00
2023-04-18T09:06:14.571Z,100.00
2023-04-18T09:08:43.918Z,100.00
2023-04-18T09:11:29.254Z,100.00
2023-04-18T09:13:58.898Z,100.00
2023-04-18T09:16:27.902Z,100.00
2023-04-18T09:19:18.716Z,99.31
2023-04-18T09:21:47.390Z,99.96
2023-04-18T09:24:24.105Z,99.28
2023-04-18T09:26:54.137Z,100.00
2023-04-18T09:29:25.045Z,99.95
2023-04-18T09:32:02.091Z,98.02
2023-04-18T09:34:29.604Z,100.00
2023-04-18T09:37:26.264Z,99.71
2023-04-18T09:39:53.298Z,100.00
2023-04-18T09:42:20.754Z,99.66
2023-04-18T09:45:07.270Z,99.84
2023-04-18T09:47:36.732Z,100.00
2023-04-18T09:50:09.482Z,100.00
2023-04-18T09:52:42.084Z,100.00
2023-04-18T09:55:17.405Z,100.00
2023-04-18T09:57:48.876Z,100.00
2023-04-18T10:00:27.382Z,100.00
2023-04-18T10:03:09.224Z,100.00
2023-04-18T10:05:39.776Z,100.00
2023-04-18T10:08:07.406Z,100.00
2023-04-18T10:10:34.350Z,100.00
2023-04-18T10:13:02.802Z,100.00
2023-04-18T10:15:31.274Z,100.00
2023-04-18T10:18:05.228Z,100.00
2023-04-18T10:20:35.070Z,100.00
2023-04-18T10:23:31.089Z,100.00
2023-04-18T10:25:59.456Z,100.00
2023-04-18T10:28:28.205Z,100.00
2023-04-18T10:31:02.933Z,99.41
2023-04-18T10:33:34.667Z,98.81
2023-04-18T10:36:11.604Z,99.36
2023-04-18T10:38:47.844Z,98.37
2023-04-18T10:41:15.996Z,98.96
2023-04-18T10:44:08.649Z,95.06
2023-04-18T10:46:38.146Z,96.92
2023-04-18T10:49:18.373Z,95.10
2023-04-18T10:51:46.562Z,95.94
2023-04-18T10:54:20.952Z,93.48
2023-04-18T10:57:03.556Z,94.98
2023-04-18T10:59:32.814Z,95.11
2023-04-18T11:02:12.236Z,95.51
2023-04-18T11:04:39.519Z,93.43
2023-04-18T11:07:06.460Z,92.38
2023-04-18T11:09:33.928Z,92.24
2023-04-18T11:12:06.212Z,92.73
2023-04-18T11:14:41.186Z,92.71
2023-04-18T11:17:29.099Z,92.09
2023-04-18T11:20:12.895Z,91.90
2023-04-18T11:22:56.778Z,93.12
2023-04-18T11:25:32.215Z,95.68
2023-04-18T11:28:00.630Z,96.62
2023-04-18T11:30:29.180Z,98.19
2023-04-18T11:32:56.150Z,99.75
2023-04-18T11:35:23.550Z,98.65
2023-04-18T11:37:51.260Z,100.00
2023-04-18T11:40:18.342Z,100.00
2023-04-18T11:42:45.433Z,100.00
2023-04-18T11:45:14.233Z,100.00
2023-04-18T11:47:43.242Z,99.91
2023-04-18T11:50:12.832Z,100.00
2023-04-18T11:52:42.735Z,100.00
2023-04-18T11:55:31.955Z,99.03
2023-04-18T11:58:01.299Z,99.10
2023-04-18T12:00:37.577Z,99.47
2023-04-18T12:03:06.374Z,98.25
2023-04-18T12:05:38.641Z,97.58
2023-04-18T12:08:11.996Z,96.53
2023-04-18T12:10:54.932Z,94.63
2023-04-18T12:13:26.965Z,91.54
2023-04-18T12:15:54.545Z,90.74
2023-04-18T12:18:23.501Z,89.95
2023-04-18T12:20:52.624Z,89.63
2023-04-18T12:23:40.574Z,87.10
2023-04-18T12:26:22.532Z,88.86
2023-04-18T12:28:55.308Z,88.49
2023-04-18T12:31:22.554Z,87.65
2023-04-18T12:33:50.905Z,88.26
2023-04-18T12:36:18.339Z,88.70
2023-04-18T12:38:45.854Z,89.06
2023-04-18T12:41:13.336Z,90.46
2023-04-18T12:43:40.640Z,89.93
2023-04-18T12:46:07.549Z,88.56
2023-04-18T12:48:34.481Z,90.06
2023-04-18T12:51:01.572Z,90.45
2023-04-18T12:53:28.550Z,91.80
2023-04-18T12:55:55.616Z,92.75
2023-04-18T12:58:22.552Z,92.77
2023-04-18T13:00:49.585Z,94.76
2023-04-18T13:03:16.696Z,94.38
2023-04-18T13:05:44.093Z,94.99
2023-04-18T13:08:16.920Z,93.90
2023-04-18T13:10:46.176Z,93.69
2023-04-18T13:13:13.385Z,93.76
2023-04-18T13:15:40.453Z,93.18
2023-04-18T13:18:07.498Z,94.04
2023-04-18T13:20:35.425Z,93.59
2023-04-18T13:23:02.969Z,95.12
2023-04-18T13:25:30.056Z,95.69
2023-04-18T13:27:58.607Z,96.07
2023-04-18T13:30:26.039Z,96.27
2023-04-18T13:32:52.929Z,96.19
2023-04-18T13:35:20.289Z,95.38
2023-04-18T13:37:47.435Z,94.20
2023-04-18T13:40:14.711Z,94.37
2023-04-18T13:42:41.552Z,94.94
2023-04-18T13:45:08.866Z,94.93
2023-04-18T13:47:35.979Z,95.10
2023-04-18T13:50:02.974Z,95.31
2023-04-18T13:52:29.781Z,95.46
2023-04-18T13:54:56.861Z,94.82
2023-04-18T13:57:23.765Z,95.35
2023-04-18T13:59:50.658Z,93.89
2023-04-18T14:02:17.810Z,94.58
2023-04-18T14:04:45.100Z,93.85
2023-04-18T14:07:12.115Z,93.86
2023-04-18T14:09:39.173Z,92.84
2023-04-18T14:12:30.517Z,92.96
2023-04-18T14:15:11.160Z,93.89
2023-04-18T14:17:38.221Z,94.38
2023-04-18T14:20:06.087Z,95.15
2023-04-18T14:22:32.995Z,95.99
2023-04-18T14:24:59.824Z,96.41
2023-04-18T14:27:27.787Z,97.40
2023-04-18T14:29:54.807Z,96.80
2023-04-18T14:32:21.709Z,96.80
2023-04-18T14:34:48.647Z,97.27
2023-04-18T14:37:17.571Z,97.17
2023-04-18T14:39:44.949Z,96.41
2023-04-18T14:42:12.032Z,96.73
2023-04-18T14:44:39.059Z,97.37
2023-04-18T14:47:06.392Z,96.79
2023-04-18T14:49:34.248Z,97.60
2023-04-18T14:52:01.167Z,97.61
2023-04-18T14:54:28.964Z,97.13
2023-04-18T14:56:56.992Z,96.76
2023-04-18T14:59:30.286Z,96.99
2023-04-18T15:01:57.408Z,95.85
2023-04-18T15:04:24.673Z,95.87
2023-04-18T15:06:51.799Z,96.26
2023-04-18T15:09:18.730Z,96.46
2023-04-18T15:11:46.038Z,96.61
2023-04-18T15:14:13.066Z,97.16
2023-04-18T15:16:41.005Z,98.26
2023-04-18T15:19:08.088Z,99.17
2023-04-18T15:21:35.036Z,99.19
2023-04-18T15:24:02.093Z,99.47
2023-04-18T15:26:30.417Z,99.82
2023-04-18T15:29:02.304Z,99.98
2023-04-18T15:31:29.621Z,100.00
2023-04-18T15:33:56.678Z,100.00
2023-04-18T15:36:23.627Z,100.00
2023-04-18T15:38:50.406Z,100.00
2023-04-18T15:41:17.266Z,100.00
2023-04-18T15:43:45.488Z,100.00
2023-04-18T15:46:12.652Z,100.00
2023-04-18T15:48:39.747Z,100.00
2023-04-18T15:51:06.827Z,100.00
2023-04-18T15:53:33.687Z,100.00
2023-04-18T15:56:02.062Z,100.00
2023-04-18T15:58:30.311Z,100.00
2023-04-18T16:00:57.740Z,100.00
2023-04-18T16:03:25.043Z,100.00
2023-04-18T16:05:54.996Z,100.00
2023-04-18T16:08:24.204Z,100.00
2023-04-18T16:10:53.241Z,100.00
2023-04-18T16:13:20.308Z,100.00
2023-04-18T16:15:48.331Z,100.00
2023-04-18T16:18:15.206Z,100.00
2023-04-18T16:20:42.382Z,100.00
2023-04-18T16:23:09.144Z,100.00
2023-04-18T16:25:36.153Z,100.00
2023-04-18T16:28:03.163Z,100.00
2023-04-18T16:30:29.961Z,100.00
2023-04-18T16:32:57.293Z,100.00
2023-04-18T16:35:24.290Z,100.00
2023-04-18T16:37:51.311Z,100.00
2023-04-18T16:40:18.080Z,100.00
2023-04-18T16:42:45.197Z,100.00
2023-04-18T16:45:42.815Z,100.00
2023-04-18T16:48:09.803Z,100.00
2023-04-18T16:50:36.860Z,100.00
2023-04-18T16:53:04.624Z,100.00
2023-04-18T16:58:47.093Z,100.00
2023-04-18T17:01:20.870Z,100.00
2023-04-18T17:03:47.833Z,100.00
2023-04-18T17:06:15.404Z,100.00
2023-04-18T17:08:42.306Z,100.00
2023-04-18T17:11:09.374Z,100.00
2023-04-18T17:13:36.594Z,100.00
2023-04-18T17:16:03.843Z,100.00
2023-04-18T17:18:30.944Z,100.00
2023-04-18T17:20:57.853Z,100.00
2023-04-18T17:23:24.790Z,100.00
2023-04-18T17:25:51.682Z,100.00
2023-04-18T17:28:18.848Z,100.00
2023-04-18T17:30:45.940Z,100.00
2023-04-18T17:33:13.146Z,100.00
2023-04-18T17:35:42.952Z,100.00
2023-04-18T17:38:10.874Z,100.00
2023-04-18T17:40:37.797Z,100.00
2023-04-18T17:43:04.875Z,100.00
2023-04-18T17:45:31.686Z,100.00
2023-04-18T17:47:59.703Z,100.00
2023-04-18T17:50:26.587Z,100.00
2023-04-18T17:52:53.459Z,100.00
2023-04-18T17:55:20.701Z,100.00
2023-04-18T17:57:47.728Z,100.00
2023-04-18T18:00:15.793Z,100.00
2023-04-18T18:02:43.277Z,100.00
2023-04-18T18:05:13.386Z,100.00
2023-04-18T18:07:43.238Z,100.00
2023-04-18T18:10:11.549Z,100.00
2023-04-18T18:12:40.094Z,100.00
2023-04-18T18:15:08.756Z,100.00
2023-04-18T18:17:38.915Z,100.00
2023-04-18T18:20:12.083Z,100.00
2023-04-18T18:26:20.870Z,100.00
2023-04-18T18:28:47.806Z,100.00
2023-04-18T18:31:14.736Z,100.00
2023-04-18T18:33:41.706Z,100.00
2023-04-18T18:36:08.648Z,100.00
2023-04-18T18:38:36.517Z,100.00
2023-04-18T18:41:04.642Z,100.00
2023-04-18T18:43:32.370Z,100.00
2023-04-18T18:45:59.538Z,100.00
2023-04-18T18:48:29.528Z,100.00
2023-04-18T18:50:57.397Z,100.00
2023-04-18T18:53:24.351Z,100.00
2023-04-18T18:55:51.474Z,100.00
2023-04-18T18:58:18.403Z,100.00
2023-04-18T19:00:46.986Z,100.00
2023-04-18T19:03:14.611Z,100.00
2023-04-18T19:05:41.630Z,100.00
2023-04-18T19:08:09.425Z,100.00
2023-04-18T19:10:36.404Z,100.00
2023-04-18T19:13:03.742Z,100.00
2023-04-18T19:15:30.581Z,100.00
2023-04-18T19:17:57.529Z,100.00
2023-04-18T19:20:24.493Z,100.00
2023-04-18T19:22:54.685Z,100.00
2023-04-18T19:25:21.957Z,100.00
2023-04-18T19:27:48.923Z,100.00
2023-04-18T19:30:15.778Z,100.00
2023-04-18T19:32:43.312Z,100.00
2023-04-18T19:35:13.239Z,100.00
2023-04-18T19:37:40.308Z,100.00
2023-04-18T19:40:07.849Z,100.00
2023-04-18T19:42:34.773Z,100.00
2023-04-18T19:45:01.889Z,100.00
2023-04-18T19:47:32.234Z,100.00
2023-04-18T19:50:00.230Z,100.00
2023-04-18T19:52:27.256Z,100.00
2023-04-18T19:54:54.994Z,100.00
2023-04-18T19:57:22.222Z,100.00
2023-04-18T19:59:49.295Z,100.00
2023-04-18T20:02:18.506Z,100.00
2023-04-18T20:04:46.427Z,100.00
2023-04-18T20:07:13.577Z,100.00
2023-04-18T20:09:40.608Z,100.00
2023-04-18T20:12:07.551Z,100.00
2023-04-18T20:14:34.534Z,100.00
2023-04-18T20:17:01.329Z,100.00
2023-04-18T20:19:29.768Z,100.00
2023-04-18T20:21:57.001Z,100.00
2023-04-18T20:24:28.241Z,100.00
2023-04-18T20:26:55.278Z,100.00
2023-04-18T20:29:22.384Z,100.00
2023-04-18T20:31:49.135Z,100.00
2023-04-18T20:34:16.247Z,100.00
2023-04-18T20:36:43.040Z,100.00
2023-04-18T20:39:09.818Z,100.00
2023-04-18T20:41:37.125Z,100.00
2023-04-18T20:44:09.230Z,100.00
2023-04-18T20:46:36.340Z,100.00
2023-04-18T20:49:03.518Z,100.00
2023-04-18T20:51:31.826Z,100.00
2023-04-18T20:53:58.792Z,100.00
2023-04-18T20:56:25.800Z,100.00
2023-04-18T20:58:52.617Z,100.00
2023-04-18T21:01:19.633Z,100.00
2023-04-18T21:03:46.957Z,100.00
2023-04-18T21:06:14.243Z,100.00
2023-04-18T21:08:41.300Z,100.00
2023-04-18T21:11:08.268Z,100.00
2023-04-18T21:13:35.093Z,100.00
2023-04-18T21:16:03.613Z,100.00
2023-04-18T21:18:30.538Z,100.00
2023-04-18T21:20:57.546Z,100.00
2023-04-18T21:23:24.725Z,100.00
2023-04-18T21:25:51.617Z,100.00
2023-04-18T21:28:21.679Z,100.00
2023-04-18T21:30:48.772Z,100.00
2023-04-18T21:33:15.669Z,100.00
2023-04-18T21:35:42.774Z,100.00
2023-04-18T21:38:09.595Z,100.00
2023-04-18T21:40:37.652Z,100.00
2023-04-18T21:43:04.589Z,100.00
2023-04-18T21:45:31.543Z,100.00
2023-04-18T21:47:58.629Z,100.00
2023-04-18T21:50:25.722Z,100.00
2023-04-18T21:52:52.545Z,100.00
2023-04-18T21:55:19.437Z,100.00
2023-04-18T21:57:46.250Z,100.00
2023-04-18T22:00:13.831Z,100.00
2023-04-18T22:02:40.854Z,100.00
2023-04-18T22:05:09.009Z,100.00
2023-04-18T22:07:40.787Z,100.00
2023-04-18T22:10:18.556Z,100.00
2023-04-18T22:12:45.893Z,100.00
2023-04-18T22:15:12.765Z,100.00
2023-04-18T22:17:41.828Z,100.00
2023-04-18T22:20:11.311Z,100.00
2023-04-18T22:22:38.111Z,100.00
2023-04-18T22:25:07.522Z,100.00
2023-04-18T22:27:34.386Z,100.00
2023-04-18T22:30:01.429Z,100.00
2023-04-18T22:32:28.237Z,100.00
2023-04-18T22:34:55.479Z,100.00
2023-04-18T22:37:22.258Z,100.00
2023-04-18T22:39:49.173Z,100.00
2023-04-18T22:42:16.110Z,100.00
2023-04-18T22:44:43.091Z,100.00
2023-04-18T22:47:10.185Z,100.00
2023-04-18T22:49:37.297Z,100.00
2023-04-18T22:52:05.159Z,100.00
2023-04-18T22:54:31.948Z,100.00
2023-04-18T22:56:58.883Z,100.00
2023-04-18T22:59:26.112Z,100.00
2023-04-18T23:01:53.274Z,100.00
2023-04-18T23:04:20.406Z,100.00
2023-04-18T23:06:47.876Z,100.00
2023-04-18T23:09:16.627Z,100.00
2023-04-18T23:11:43.564Z,100.00
2023-04-18T23:14:10.506Z,100.00
2023-04-18T23:16:37.764Z,100.00
2023-04-18T23:19:04.665Z,100.00
2023-04-18T23:21:32.409Z,100.00
2023-04-18T23:23:59.848Z,100.00
2023-04-18T23:26:26.771Z,100.00
2023-04-18T23:28:53.731Z,100.00
2023-04-18T23:31:20.929Z,100.00
2023-04-18T23:33:47.748Z,100.00
2023-04-18T23:36:14.914Z,100.00
2023-04-18T23:38:41.804Z,100.00
2023-04-18T23:41:08.868Z,100.00
2023-04-18T23:43:35.773Z,100.00
2023-04-18T23:46:02.958Z,100.00
2023-04-18T23:48:29.821Z,100.00
2023-04-18T23:50:56.728Z,100.00
2023-04-18T23:53:23.839Z,100.00
2023-04-18T23:55:51.276Z,100.00
2023-04-18T23:58:18.058Z,100.00
